This is the latest recevied weather packets stored in our database for station/object DB0MI. If no packets are shown the sender has not sent any weather packets the latest 1 day(s).
| Time | Temp. | Humidity | Pressure | Rain* | Wind** | Luminosity | Snow |
|---|---|---|---|---|---|---|---|
| 1777999904 | 12.78° C | 90% | 1006.6 hPa | 1.02 mm | 0 m/s | - | - |
| 1777999304 | 12.78° C | 90% | 1006.8 hPa | 1.02 mm | 0 m/s | - | - |
| 1777998704 | 12.78° C | 89% | 1006.9 hPa | 1.52 mm | 0 m/s | - | - |
| 1777998104 | 12.78° C | 89% | 1007.1 hPa | 2.03 mm | 0 m/s | - | - |
| 1777997504 | 12.78° C | 89% | 1007.1 hPa | 1.52 mm | 0 m/s | - | - |
| 1777996904 | 12.78° C | 88% | 1007.4 hPa | 2.03 mm | 0 m/s | - | - |
| 1777996304 | 12.78° C | 88% | 1007.6 hPa | 3.05 mm | 0 m/s | - | - |
| 1777995704 | 12.78° C | 87% | 1007.6 hPa | 3.56 mm | 0 m/s | - | - |
| 1777995104 | 12.78° C | 86% | 1007.7 hPa | 3.05 mm | 0 m/s | - | - |
| 1777994504 | 13.33° C | 85% | 1007.6 hPa | 2.54 mm | 0 m/s | - | - |
| 1777993904 | 13.33° C | 83% | 1007.7 hPa | 2.54 mm | 0 m/s | - | - |
| 1777993304 | 13.89° C | 81% | 1007.7 hPa | 1.52 mm | 0 m/s | - | - |
| 1777992704 | 15° C | 78% | 1007.6 hPa | 0.51 mm | 0 m/s | - | - |
| 1777992104 | 15.56° C | 76% | 1007.3 hPa | 0 mm | 0 m/s | - | - |
| 1777991504 | 16.67° C | 74% | 1007.3 hPa | 0 mm | 0 m/s | - | - |
| 1777990904 | 17.22° C | 72% | 1007.2 hPa | 0 mm | 0 m/s | - | - |
| 1777990304 | 17.78° C | 71% | 1007.1 hPa | 0 mm | 0 m/s | - | - |
| 1777989704 | 17.78° C | 70% | 1007.4 hPa | 0 mm | 0 m/s | - | - |
| 1777989104 | 18.33° C | 70% | 1007.6 hPa | 0 mm | 0 m/s | - | - |
| 1777988505 | 18.33° C | 71% | 1007.5 hPa | 0 mm | 0 m/s | - | - |
| 1777987904 | 18.33° C | 70% | 1007.5 hPa | 0 mm | 0 m/s | - | - |
| 1777987304 | 18.33° C | 68% | 1007.7 hPa | 0 mm | 0 m/s | - | - |
| 1777986705 | 18.33° C | 71% | 1007.7 hPa | 0 mm | 0 m/s | - | - |
| 1777986105 | 17.78° C | 71% | 1007.8 hPa | 0 mm | 0 m/s | - | - |
| 1777985505 | 17.78° C | 72% | 1007.8 hPa | 0 mm | 0 m/s | - | - |
* Rain latest hour (hover to see other rain measurements)
** Current wind speed in m/s (hover to see current wind gust speed)